createdAt,value
2023-03-23T00:01:48.340Z,1882.00
2023-03-23T00:05:48.313Z,1880.00
2023-03-23T00:09:48.334Z,1874.00
2023-03-23T00:13:48.408Z,1867.00
2023-03-23T00:17:48.441Z,1867.00
2023-03-23T00:21:48.534Z,1854.00
2023-03-23T00:25:48.497Z,1845.00
2023-03-23T00:29:48.569Z,1847.00
2023-03-23T00:33:48.552Z,1838.00
2023-03-23T00:37:48.608Z,1825.00
2023-03-23T00:41:48.657Z,1820.00
2023-03-23T00:45:48.739Z,1813.00
2023-03-23T00:49:48.908Z,1813.00
2023-03-23T00:53:48.874Z,1804.00
2023-03-23T00:57:48.916Z,1795.00
2023-03-23T01:01:48.894Z,1786.00
2023-03-23T01:05:48.993Z,1784.00
2023-03-23T01:09:49.028Z,1772.00
2023-03-23T01:13:49.186Z,1769.00
2023-03-23T01:17:49.203Z,1764.00
2023-03-23T01:21:49.230Z,1749.00
2023-03-23T01:25:49.301Z,1753.00
2023-03-23T01:29:49.388Z,1751.00
2023-03-23T01:33:49.411Z,1744.00
2023-03-23T01:37:49.502Z,1713.00
2023-03-23T01:41:49.561Z,1741.00
2023-03-23T01:45:49.652Z,1724.00
2023-03-23T01:49:49.738Z,1715.00
2023-03-23T01:53:49.822Z,1716.00
2023-03-23T01:57:49.900Z,1716.00
2023-03-23T02:01:50.010Z,1699.00
2023-03-23T02:05:50.093Z,1707.00
2023-03-23T02:09:50.167Z,1696.00
2023-03-23T02:13:50.300Z,1682.00
2023-03-23T02:17:50.381Z,1677.00
2023-03-23T02:21:50.464Z,1688.00
2023-03-23T02:25:50.588Z,1667.00
2023-03-23T02:29:50.713Z,1662.00
2023-03-23T02:33:50.801Z,1658.00
2023-03-23T02:37:50.936Z,1653.00
2023-03-23T02:41:51.020Z,1661.00
2023-03-23T02:45:51.113Z,1652.00
2023-03-23T02:49:51.222Z,1640.00
2023-03-23T02:53:51.345Z,1629.00
2023-03-23T02:57:51.472Z,1631.00
2023-03-23T03:01:51.606Z,1627.00
2023-03-23T03:05:51.732Z,1620.00
2023-03-23T03:09:51.871Z,1600.00
2023-03-23T03:13:51.950Z,1604.00
2023-03-23T03:17:52.114Z,1607.00
2023-03-23T03:21:52.280Z,1602.00
2023-03-23T03:25:52.392Z,1586.00
2023-03-23T03:29:52.543Z,1575.00
2023-03-23T03:33:52.640Z,1575.00
2023-03-23T03:37:52.857Z,1577.00
2023-03-23T03:41:52.931Z,1572.00
2023-03-23T03:45:53.143Z,1561.00
2023-03-23T03:49:53.347Z,1548.00
2023-03-23T03:53:53.497Z,1551.00
2023-03-23T03:57:53.632Z,1559.00
2023-03-23T04:01:53.783Z,1540.00
2023-03-23T04:05:58.427Z,1542.00
2023-03-23T04:09:53.916Z,1531.00
2023-03-23T04:13:53.934Z,1536.00
2023-03-23T04:17:53.862Z,1526.00
2023-03-23T04:21:54.114Z,1517.00
2023-03-23T04:25:54.243Z,1530.00
2023-03-23T04:29:54.385Z,1517.00
2023-03-23T04:33:58.611Z,1510.00
2023-03-23T04:37:55.569Z,1510.00
2023-03-23T04:41:54.479Z,1503.00
2023-03-23T04:45:54.467Z,1504.00
2023-03-23T04:49:54.702Z,1496.00
2023-03-23T04:53:54.895Z,1500.00
2023-03-23T04:57:54.997Z,1480.00
2023-03-23T05:01:55.187Z,1489.00
2023-03-23T05:05:56.145Z,1443.00
2023-03-23T05:09:55.119Z,1400.00
2023-03-23T05:13:55.082Z,1341.00
2023-03-23T05:17:55.306Z,1303.00
2023-03-23T05:21:55.430Z,1248.00
2023-03-23T05:25:55.605Z,1213.00
2023-03-23T05:29:55.852Z,1157.00
2023-03-23T05:33:55.961Z,1143.00
2023-03-23T05:37:56.150Z,1134.00
2023-03-23T05:41:57.122Z,1133.00
2023-03-23T05:45:56.046Z,1138.00
2023-03-23T05:49:56.110Z,1129.00
2023-03-23T05:53:56.297Z,1136.00
2023-03-23T05:57:56.540Z,1136.00
2023-03-23T06:01:56.729Z,1139.00
2023-03-23T06:05:56.893Z,1140.00
2023-03-23T06:09:56.992Z,1125.00
2023-03-23T06:13:57.163Z,1116.00
2023-03-23T06:17:57.286Z,1114.00
2023-03-23T06:21:57.410Z,1108.00
2023-03-23T06:26:04.467Z,1117.00
2023-03-23T06:29:58.499Z,1115.00
2023-03-23T06:33:57.437Z,1095.00
2023-03-23T06:37:57.394Z,1123.00
2023-03-23T06:41:57.379Z,1110.00
2023-03-23T06:45:57.476Z,1066.00
2023-03-23T06:49:57.466Z,1080.00
2023-03-23T06:53:57.396Z,1076.00
2023-03-23T06:57:57.381Z,1095.00
2023-03-23T07:01:57.357Z,1087.00
2023-03-23T07:05:57.307Z,1098.00
2023-03-23T07:09:57.265Z,1111.00
2023-03-23T07:13:57.236Z,1095.00
2023-03-23T07:17:57.177Z,1111.00
2023-03-23T07:21:57.132Z,1125.00
2023-03-23T07:25:57.207Z,1143.00
2023-03-23T07:29:57.090Z,1134.00
2023-03-23T07:33:57.176Z,1139.00
2023-03-23T07:37:56.982Z,1152.00
2023-03-23T07:41:57.010Z,1186.00
2023-03-23T07:45:56.939Z,1182.00
2023-03-23T07:49:56.872Z,1203.00
2023-03-23T07:53:56.840Z,1246.00
2023-03-23T07:57:56.815Z,1246.00
2023-03-23T08:01:56.814Z,1251.00
2023-03-23T08:05:56.752Z,1245.00
2023-03-23T08:09:56.710Z,1241.00
2023-03-23T08:13:56.718Z,1251.00
2023-03-23T08:17:56.651Z,1252.00
2023-03-23T08:21:56.554Z,1273.00
2023-03-23T08:25:56.513Z,1288.00
2023-03-23T08:29:56.501Z,1269.00
2023-03-23T08:33:56.549Z,1091.00
2023-03-23T08:37:56.601Z,1026.00
2023-03-23T08:41:56.603Z,1019.00
2023-03-23T08:45:56.625Z,1030.00
2023-03-23T08:49:56.539Z,1016.00
2023-03-23T08:53:56.467Z,1038.00
2023-03-23T08:57:56.430Z,1070.00
2023-03-23T09:01:56.428Z,1095.00
2023-03-23T09:05:56.352Z,1095.00
2023-03-23T09:09:56.325Z,1138.00
2023-03-23T09:13:56.321Z,1165.00
2023-03-23T09:17:56.226Z,1188.00
2023-03-23T09:21:56.320Z,1174.00
2023-03-23T09:25:56.192Z,1125.00
2023-03-23T09:29:56.169Z,1098.00
2023-03-23T09:33:56.128Z,1049.00
2023-03-23T09:37:56.053Z,1010.00
2023-03-23T09:41:56.035Z,939.00
2023-03-23T09:45:56.123Z,994.00
2023-03-23T09:49:55.925Z,993.00
2023-03-23T09:53:55.890Z,1074.00
2023-03-23T09:57:55.885Z,1068.00
2023-03-23T10:01:55.864Z,1189.00
2023-03-23T10:05:55.843Z,1143.00
2023-03-23T10:09:55.988Z,1135.00
2023-03-23T10:13:56.204Z,1145.00
2023-03-23T10:17:56.322Z,1100.00
2023-03-23T10:21:56.419Z,1117.00
2023-03-23T10:25:56.543Z,1105.00
2023-03-23T10:29:56.643Z,1087.00
2023-03-23T10:33:56.757Z,1107.00
2023-03-23T10:37:56.891Z,994.00
2023-03-23T10:41:56.914Z,554.00
2023-03-23T10:46:00.405Z,662.00
2023-03-23T10:49:56.921Z,702.00
2023-03-23T10:53:56.818Z,774.00
2023-03-23T10:57:56.768Z,766.00
2023-03-23T11:01:56.728Z,693.00
2023-03-23T11:05:56.681Z,836.00
2023-03-23T11:09:56.681Z,897.00
2023-03-23T11:13:56.679Z,886.00
2023-03-23T11:17:56.761Z,872.00
2023-03-23T11:21:56.568Z,841.00
2023-03-23T11:25:56.540Z,964.00
2023-03-23T11:29:58.636Z,594.00
2023-03-23T11:34:05.874Z,504.00
2023-03-23T11:37:57.417Z,400.00
2023-03-23T11:42:08.766Z,521.00
2023-03-23T11:45:57.335Z,552.00
2023-03-23T11:49:56.342Z,583.00
2023-03-23T11:53:56.333Z,657.00
2023-03-23T11:57:56.293Z,686.00
2023-03-23T12:01:56.495Z,706.00
2023-03-23T12:05:56.206Z,680.00
2023-03-23T12:09:56.288Z,620.00
2023-03-23T12:13:58.692Z,599.00
2023-03-23T12:17:56.395Z,629.00
2023-03-23T12:21:56.342Z,578.00
2023-03-23T12:25:56.509Z,578.00
2023-03-23T12:29:56.723Z,537.00
2023-03-23T12:33:56.655Z,549.00
2023-03-23T12:37:56.637Z,516.00
2023-03-23T12:41:56.590Z,516.00
2023-03-23T12:45:56.525Z,620.00
2023-03-23T12:49:56.512Z,621.00
2023-03-23T12:53:56.472Z,668.00
2023-03-23T12:57:56.403Z,692.00
2023-03-23T13:01:56.386Z,604.00
2023-03-23T13:05:56.351Z,694.00
2023-03-23T13:09:57.454Z,638.00
2023-03-23T13:13:56.307Z,685.00
2023-03-23T13:17:56.337Z,618.00
2023-03-23T13:21:56.426Z,689.00
2023-03-23T13:25:56.607Z,599.00
2023-03-23T13:29:56.693Z,486.00
2023-03-23T13:33:56.847Z,524.00
2023-03-23T13:37:57.046Z,495.00
2023-03-23T13:41:57.258Z,548.00
2023-03-23T13:45:57.407Z,500.00
2023-03-23T13:49:57.637Z,535.00
2023-03-23T13:53:57.846Z,607.00
2023-03-23T13:57:58.172Z,543.00
2023-03-23T14:01:58.268Z,569.00
2023-03-23T14:05:58.229Z,638.00
2023-03-23T14:09:58.196Z,653.00
2023-03-23T14:13:58.185Z,611.00
2023-03-23T14:17:58.184Z,563.00
2023-03-23T14:21:58.107Z,570.00
2023-03-23T14:25:58.084Z,590.00
2023-03-23T14:29:58.013Z,598.00
2023-03-23T14:33:58.013Z,587.00
2023-03-23T14:37:57.928Z,633.00
2023-03-23T14:41:57.883Z,663.00
2023-03-23T14:45:57.919Z,553.00
2023-03-23T14:49:57.867Z,643.00
2023-03-23T14:53:57.800Z,739.00
2023-03-23T14:57:57.784Z,655.00
2023-03-23T15:01:57.757Z,657.00
2023-03-23T15:05:57.675Z,592.00
2023-03-23T15:09:57.668Z,662.00
2023-03-23T15:13:57.641Z,610.00
2023-03-23T15:17:57.619Z,667.00
2023-03-23T15:21:57.535Z,644.00
2023-03-23T15:25:57.512Z,663.00
2023-03-23T15:29:57.548Z,644.00
2023-03-23T15:33:57.577Z,755.00
2023-03-23T15:37:57.663Z,711.00
2023-03-23T15:41:58.648Z,650.00
2023-03-23T15:45:57.658Z,677.00
2023-03-23T15:49:57.582Z,663.00
2023-03-23T15:54:00.141Z,632.00
2023-03-23T15:57:58.557Z,656.00
2023-03-23T16:01:57.553Z,667.00
2023-03-23T16:05:57.471Z,689.00
2023-03-23T16:09:57.406Z,778.00
2023-03-23T16:13:57.353Z,737.00
2023-03-23T16:17:57.410Z,678.00
2023-03-23T16:21:57.289Z,664.00
2023-03-23T16:25:57.352Z,826.00
2023-03-23T16:30:03.654Z,953.00
2023-03-23T16:33:58.351Z,964.00
2023-03-23T16:38:06.949Z,733.00
2023-03-23T16:41:58.249Z,835.00
2023-03-23T16:45:57.216Z,919.00
2023-03-23T16:49:57.176Z,961.00
2023-03-23T16:53:57.449Z,866.00
2023-03-23T16:58:13.054Z,876.00
2023-03-23T17:01:58.252Z,900.00
2023-03-23T17:05:57.179Z,982.00
2023-03-23T17:09:57.214Z,1099.00
2023-03-23T17:13:57.424Z,1156.00
2023-03-23T17:17:57.566Z,1118.00
2023-03-23T17:21:57.697Z,1135.00
2023-03-23T17:25:57.875Z,1087.00
2023-03-23T17:29:58.222Z,1090.00
2023-03-23T17:33:58.336Z,1109.00
2023-03-23T17:37:58.565Z,1117.00
2023-03-23T17:41:58.514Z,1066.00
2023-03-23T17:45:58.484Z,1101.00
2023-03-23T17:49:58.502Z,1218.00
2023-03-23T17:53:58.439Z,1200.00
2023-03-23T17:57:58.419Z,1142.00
2023-03-23T18:01:58.380Z,1117.00
2023-03-23T18:05:58.311Z,1210.00
2023-03-23T18:09:58.280Z,1268.00
2023-03-23T18:13:58.253Z,1391.00
2023-03-23T18:17:58.258Z,1341.00
2023-03-23T18:21:58.575Z,1289.00
2023-03-23T18:25:58.441Z,1249.00
2023-03-23T18:29:58.474Z,1366.00
2023-03-23T18:33:58.441Z,1589.00
2023-03-23T18:37:58.481Z,1656.00
2023-03-23T18:41:58.450Z,1719.00
2023-03-23T18:45:58.647Z,1830.00
2023-03-23T18:49:58.642Z,1909.00
2023-03-23T18:53:58.735Z,1938.00
2023-03-23T18:57:58.904Z,1866.00
2023-03-23T19:01:59.049Z,1860.00
2023-03-23T19:05:59.183Z,1874.00
2023-03-23T19:09:59.285Z,1868.00
2023-03-23T19:14:03.065Z,1926.00
2023-03-23T19:17:59.353Z,1882.00
2023-03-23T19:22:00.133Z,1868.00
2023-03-23T19:25:59.306Z,1928.00
2023-03-23T19:29:59.229Z,1858.00
2023-03-23T19:33:59.157Z,1886.00
2023-03-23T19:37:59.156Z,1868.00
2023-03-23T19:41:59.132Z,1913.00
2023-03-23T19:46:00.066Z,1898.00
2023-03-23T19:49:59.058Z,1825.00
2023-03-23T19:53:59.106Z,1787.00
2023-03-23T19:58:00.334Z,1812.00
2023-03-23T20:01:58.941Z,1818.00
2023-03-23T20:05:58.884Z,1760.00
2023-03-23T20:09:59.123Z,1762.00
2023-03-23T20:13:58.815Z,1746.00
2023-03-23T20:17:58.860Z,1745.00
2023-03-23T20:21:58.762Z,1803.00
2023-03-23T20:25:59.065Z,1785.00
2023-03-23T20:29:58.685Z,1793.00
2023-03-23T20:34:00.562Z,1812.00
2023-03-23T20:37:58.737Z,1816.00
2023-03-23T20:41:58.716Z,1842.00
2023-03-23T20:45:58.685Z,1836.00
2023-03-23T20:49:58.718Z,1836.00
2023-03-23T20:53:58.690Z,1833.00
2023-03-23T20:57:58.663Z,1791.00
2023-03-23T21:01:58.656Z,1789.00
2023-03-23T21:05:58.628Z,1813.00
2023-03-23T21:09:58.647Z,1831.00
2023-03-23T21:13:58.679Z,1836.00
2023-03-23T21:17:58.655Z,1834.00
2023-03-23T21:21:58.625Z,1832.00
2023-03-23T21:25:58.659Z,1810.00
2023-03-23T21:29:58.634Z,1803.00
2023-03-23T21:33:58.651Z,1800.00
2023-03-23T21:37:59.077Z,1811.00
2023-03-23T21:41:58.604Z,1819.00
2023-03-23T21:45:59.154Z,1814.00
2023-03-23T21:49:58.613Z,1804.00
2023-03-23T21:53:58.595Z,1788.00
2023-03-23T21:57:58.592Z,1795.00
2023-03-23T22:01:58.671Z,1797.00
2023-03-23T22:05:58.615Z,1803.00
2023-03-23T22:09:58.584Z,1773.00
2023-03-23T22:13:58.597Z,1787.00
2023-03-23T22:17:58.710Z,1769.00
2023-03-23T22:21:58.658Z,1764.00
2023-03-23T22:25:58.758Z,1752.00
2023-03-23T22:29:58.761Z,1750.00
2023-03-23T22:33:58.781Z,1743.00
2023-03-23T22:37:58.850Z,1759.00
2023-03-23T22:41:58.898Z,1754.00
2023-03-23T22:45:59.013Z,1727.00
2023-03-23T22:49:58.986Z,1741.00
2023-03-23T22:53:58.989Z,1715.00
2023-03-23T22:57:59.080Z,1714.00
2023-03-23T23:01:59.115Z,1700.00
2023-03-23T23:05:59.170Z,1698.00
2023-03-23T23:09:59.229Z,1681.00
2023-03-23T23:13:59.289Z,1685.00
2023-03-23T23:17:59.410Z,1679.00
2023-03-23T23:22:09.315Z,1635.00
2023-03-23T23:26:00.440Z,1648.00
2023-03-23T23:29:59.352Z,1633.00
2023-03-23T23:33:59.346Z,1642.00
2023-03-23T23:37:59.283Z,1619.00
2023-03-23T23:41:59.230Z,1621.00
2023-03-23T23:45:59.366Z,1600.00
2023-03-23T23:49:59.435Z,1598.00
2023-03-23T23:53:59.495Z,1589.00
2023-03-23T23:57:59.608Z,1599.00
